sensor_id;sensor_type;location;lat;lon;timestamp;P1;durP1;ratioP1;P2;durP2;ratioP2
15297;SDS011;7750;48.796;9.026;2024-03-08T08:39:51;27.83;;;17.40;;
15297;SDS011;7750;48.796;9.026;2024-03-08T08:44:52;25.30;;;18.30;;
15297;SDS011;7750;48.796;9.026;2024-03-08T08:49:53;23.97;;;17.87;;
15297;SDS011;7750;48.796;9.026;2024-03-08T08:54:55;26.07;;;19.90;;
15297;SDS011;7750;48.796;9.026;2024-03-08T08:59:56;23.20;;;17.03;;
15297;SDS011;7750;48.796;9.026;2024-03-08T09:04:57;23.37;;;17.10;;
15297;SDS011;7750;48.796;9.026;2024-03-08T09:09:58;23.27;;;17.80;;
15297;SDS011;7750;48.796;9.026;2024-03-08T09:15:02;25.23;;;18.27;;
15297;SDS011;7750;48.796;9.026;2024-03-08T09:20:11;21.90;;;16.10;;
15297;SDS011;7750;48.796;9.026;2024-03-08T09:25:18;27.70;;;19.03;;
15297;SDS011;7750;48.796;9.026;2024-03-08T09:40:52;22.63;;;17.53;;
15297;SDS011;7750;48.796;9.026;2024-03-08T09:45:53;23.90;;;18.53;;
15297;SDS011;7750;48.796;9.026;2024-03-08T09:50:54;23.00;;;17.43;;
15297;SDS011;7750;48.796;9.026;2024-03-08T09:55:56;21.40;;;16.13;;
15297;SDS011;7750;48.796;9.026;2024-03-08T10:11:14;24.90;;;19.03;;
15297;SDS011;7750;48.796;9.026;2024-03-08T10:16:15;25.30;;;18.17;;
15297;SDS011;7750;48.796;9.026;2024-03-08T10:21:17;25.73;;;17.97;;
15297;SDS011;7750;48.796;9.026;2024-03-08T10:26:19;28.83;;;20.77;;
15297;SDS011;7750;48.796;9.026;2024-03-08T10:36:31;24.53;;;19.07;;
15297;SDS011;7750;48.796;9.026;2024-03-08T10:41:35;24.33;;;17.70;;
15297;SDS011;7750;48.796;9.026;2024-03-08T11:02:02;22.80;;;17.17;;
15297;SDS011;7750;48.796;9.026;2024-03-08T11:07:05;21.40;;;16.07;;
15297;SDS011;7750;48.796;9.026;2024-03-08T11:22:40;22.57;;;17.17;;
15297;SDS011;7750;48.796;9.026;2024-03-08T11:27:52;27.07;;;18.60;;
15297;SDS011;7750;48.796;9.026;2024-03-08T11:33:05;24.43;;;17.13;;
15297;SDS011;7750;48.796;9.026;2024-03-08T11:38:13;25.40;;;18.60;;
15297;SDS011;7750;48.796;9.026;2024-03-08T11:43:14;23.50;;;17.00;;
15297;SDS011;7750;48.796;9.026;2024-03-08T11:48:16;26.57;;;18.97;;
15297;SDS011;7750;48.796;9.026;2024-03-08T11:53:17;24.30;;;16.93;;
15297;SDS011;7750;48.796;9.026;2024-03-08T11:58:17;22.27;;;16.23;;
15297;SDS011;7750;48.796;9.026;2024-03-08T12:03:18;23.50;;;16.57;;
15297;SDS011;7750;48.796;9.026;2024-03-08T12:08:20;19.03;;;14.30;;
15297;SDS011;7750;48.796;9.026;2024-03-08T12:13:21;19.87;;;14.70;;
15297;SDS011;7750;48.796;9.026;2024-03-08T12:18:34;21.10;;;13.97;;
15297;SDS011;7750;48.796;9.026;2024-03-08T12:23:38;21.43;;;15.90;;
15297;SDS011;7750;48.796;9.026;2024-03-08T12:28:44;19.10;;;13.20;;
15297;SDS011;7750;48.796;9.026;2024-03-08T12:33:55;20.23;;;14.20;;
15297;SDS011;7750;48.796;9.026;2024-03-08T12:44:10;21.87;;;15.23;;
15297;SDS011;7750;48.796;9.026;2024-03-08T12:49:11;20.63;;;14.33;;
15297;SDS011;7750;48.796;9.026;2024-03-08T12:54:12;21.20;;;14.00;;
15297;SDS011;7750;48.796;9.026;2024-03-08T12:59:13;20.97;;;14.83;;
15297;SDS011;7750;48.796;9.026;2024-03-08T13:09:23;26.43;;;15.07;;
15297;SDS011;7750;48.796;9.026;2024-03-08T13:14:37;23.00;;;15.53;;
15297;SDS011;7750;48.796;9.026;2024-03-08T13:19:40;18.50;;;12.60;;
15297;SDS011;7750;48.796;9.026;2024-03-08T13:24:42;28.03;;;15.90;;
15297;SDS011;7750;48.796;9.026;2024-03-08T13:29:48;21.47;;;14.10;;
15297;SDS011;7750;48.796;9.026;2024-03-08T13:34:51;23.00;;;15.60;;
15297;SDS011;7750;48.796;9.026;2024-03-08T13:39:55;21.40;;;14.20;;
15297;SDS011;7750;48.796;9.026;2024-03-08T13:44:59;20.60;;;13.57;;
15297;SDS011;7750;48.796;9.026;2024-03-08T13:49:59;21.77;;;15.47;;
15297;SDS011;7750;48.796;9.026;2024-03-08T13:55:01;24.23;;;15.97;;
15297;SDS011;7750;48.796;9.026;2024-03-08T14:00:08;20.10;;;13.97;;
15297;SDS011;7750;48.796;9.026;2024-03-08T14:10:24;25.17;;;15.33;;
15297;SDS011;7750;48.796;9.026;2024-03-08T14:15:27;23.50;;;17.33;;
15297;SDS011;7750;48.796;9.026;2024-03-08T14:20:27;24.13;;;14.47;;
15297;SDS011;7750;48.796;9.026;2024-03-08T14:25:29;19.63;;;13.97;;
15297;SDS011;7750;48.796;9.026;2024-03-08T14:35:56;24.37;;;15.47;;
15297;SDS011;7750;48.796;9.026;2024-03-08T14:40:58;24.70;;;15.60;;
15297;SDS011;7750;48.796;9.026;2024-03-08T14:51:25;20.00;;;13.37;;
15297;SDS011;7750;48.796;9.026;2024-03-08T15:01:30;22.43;;;14.90;;
15297;SDS011;7750;48.796;9.026;2024-03-08T15:17:26;22.33;;;15.20;;
15297;SDS011;7750;48.796;9.026;2024-03-08T15:27:37;21.73;;;14.47;;
15297;SDS011;7750;48.796;9.026;2024-03-08T15:32:44;22.20;;;14.97;;
15297;SDS011;7750;48.796;9.026;2024-03-08T15:38:11;22.27;;;14.23;;
15297;SDS011;7750;48.796;9.026;2024-03-08T15:43:13;20.70;;;14.53;;
15297;SDS011;7750;48.796;9.026;2024-03-08T15:48:16;21.40;;;15.07;;
15297;SDS011;7750;48.796;9.026;2024-03-08T15:53:28;18.30;;;13.53;;
15297;SDS011;7750;48.796;9.026;2024-03-08T16:03:37;22.00;;;14.60;;
15297;SDS011;7750;48.796;9.026;2024-03-08T16:08:37;27.10;;;16.10;;
15297;SDS011;7750;48.796;9.026;2024-03-08T16:13:40;23.07;;;14.60;;
15297;SDS011;7750;48.796;9.026;2024-03-08T16:18:41;21.53;;;14.23;;
15297;SDS011;7750;48.796;9.026;2024-03-08T16:34:12;20.07;;;13.27;;
15297;SDS011;7750;48.796;9.026;2024-03-08T16:39:17;21.07;;;12.97;;
15297;SDS011;7750;48.796;9.026;2024-03-08T16:44:31;25.93;;;14.50;;
15297;SDS011;7750;48.796;9.026;2024-03-08T16:49:32;20.43;;;14.50;;
15297;SDS011;7750;48.796;9.026;2024-03-08T16:54:32;22.30;;;15.37;;
15297;SDS011;7750;48.796;9.026;2024-03-08T16:59:34;23.57;;;15.30;;
15297;SDS011;7750;48.796;9.026;2024-03-08T17:04:35;22.60;;;14.20;;
15297;SDS011;7750;48.796;9.026;2024-03-08T17:09:36;20.53;;;13.47;;
15297;SDS011;7750;48.796;9.026;2024-03-08T17:14:38;18.37;;;13.10;;
15297;SDS011;7750;48.796;9.026;2024-03-08T17:19:39;20.20;;;14.13;;
15297;SDS011;7750;48.796;9.026;2024-03-08T17:24:40;28.53;;;14.27;;
15297;SDS011;7750;48.796;9.026;2024-03-08T17:29:41;18.93;;;12.23;;
15297;SDS011;7750;48.796;9.026;2024-03-08T17:34:44;23.43;;;12.83;;
15297;SDS011;7750;48.796;9.026;2024-03-08T17:45:01;18.70;;;11.87;;
15297;SDS011;7750;48.796;9.026;2024-03-08T17:50:02;22.33;;;13.60;;
15297;SDS011;7750;48.796;9.026;2024-03-08T18:49:32;20.03;;;13.03;;
15297;SDS011;7750;48.796;9.026;2024-03-08T19:43:19;16.93;;;10.90;;
15297;SDS011;7750;48.796;9.026;2024-03-08T19:48:21;14.90;;;10.97;;
15297;SDS011;7750;48.796;9.026;2024-03-08T19:53:22;13.27;;;9.67;;
15297;SDS011;7750;48.796;9.026;2024-03-08T19:58:23;13.10;;;9.77;;
15297;SDS011;7750;48.796;9.026;2024-03-08T20:03:24;15.37;;;10.73;;
15297;SDS011;7750;48.796;9.026;2024-03-08T20:29:06;14.27;;;10.97;;
15297;SDS011;7750;48.796;9.026;2024-03-08T20:34:08;14.50;;;10.80;;
15297;SDS011;7750;48.796;9.026;2024-03-08T20:39:18;16.00;;;11.63;;
15297;SDS011;7750;48.796;9.026;2024-03-08T22:12:17;18.53;;;11.93;;
15297;SDS011;7750;48.796;9.026;2024-03-08T22:17:19;17.20;;;11.07;;
15297;SDS011;7750;48.796;9.026;2024-03-08T22:22:22;18.83;;;12.77;;
15297;SDS011;7750;48.796;9.026;2024-03-08T22:27:25;17.07;;;12.67;;
15297;SDS011;7750;48.796;9.026;2024-03-08T22:32:26;18.37;;;13.20;;
15297;SDS011;7750;48.796;9.026;2024-03-08T22:37:28;17.43;;;12.27;;
15297;SDS011;7750;48.796;9.026;2024-03-08T22:42:28;15.43;;;10.80;;
15297;SDS011;7750;48.796;9.026;2024-03-08T22:47:29;16.00;;;11.67;;
15297;SDS011;7750;48.796;9.026;2024-03-08T22:52:32;16.60;;;11.80;;
15297;SDS011;7750;48.796;9.026;2024-03-08T22:57:35;24.37;;;16.33;;
15297;SDS011;7750;48.796;9.026;2024-03-08T23:02:40;21.80;;;15.30;;
15297;SDS011;7750;48.796;9.026;2024-03-08T23:07:41;21.87;;;14.83;;
15297;SDS011;7750;48.796;9.026;2024-03-08T23:12:49;20.93;;;14.37;;
15297;SDS011;7750;48.796;9.026;2024-03-08T23:17:52;20.93;;;14.17;;
15297;SDS011;7750;48.796;9.026;2024-03-08T23:22:55;24.47;;;15.60;;
15297;SDS011;7750;48.796;9.026;2024-03-08T23:27:56;25.40;;;15.37;;
15297;SDS011;7750;48.796;9.026;2024-03-08T23:32:58;20.33;;;14.33;;
15297;SDS011;7750;48.796;9.026;2024-03-08T23:37:59;17.07;;;12.60;;
15297;SDS011;7750;48.796;9.026;2024-03-08T23:42:59;20.43;;;12.53;;
15297;SDS011;7750;48.796;9.026;2024-03-08T23:48:00;22.37;;;13.20;;
15297;SDS011;7750;48.796;9.026;2024-03-08T23:53:01;19.37;;;12.40;;
15297;SDS011;7750;48.796;9.026;2024-03-08T23:58:06;19.10;;;12.70;;
